sensor_id;sensor_type;location;lat;lon;timestamp;P1;durP1;ratioP1;P2;durP2;ratioP2
13683;SDS011;6914;53.552;9.908;2022-09-09T00:01:56;92.27;;;41.37;;
13683;SDS011;6914;53.552;9.908;2022-09-09T00:04:27;92.93;;;43.73;;
13683;SDS011;6914;53.552;9.908;2022-09-09T00:06:59;98.17;;;43.80;;
13683;SDS011;6914;53.552;9.908;2022-09-09T00:09:32;94.67;;;43.37;;
13683;SDS011;6914;53.552;9.908;2022-09-09T00:12:08;95.30;;;42.33;;
13683;SDS011;6914;53.552;9.908;2022-09-09T00:14:40;97.20;;;42.73;;
13683;SDS011;6914;53.552;9.908;2022-09-09T00:17:12;79.77;;;39.87;;
13683;SDS011;6914;53.552;9.908;2022-09-09T00:19:44;87.50;;;39.30;;
13683;SDS011;6914;53.552;9.908;2022-09-09T00:22:19;67.30;;;38.43;;
13683;SDS011;6914;53.552;9.908;2022-09-09T00:24:51;69.83;;;38.90;;
13683;SDS011;6914;53.552;9.908;2022-09-09T00:27:22;76.10;;;38.47;;
13683;SDS011;6914;53.552;9.908;2022-09-09T00:29:56;74.13;;;36.50;;
13683;SDS011;6914;53.552;9.908;2022-09-09T00:32:27;67.60;;;36.20;;
13683;SDS011;6914;53.552;9.908;2022-09-09T00:34:58;58.07;;;33.43;;
13683;SDS011;6914;53.552;9.908;2022-09-09T00:37:28;67.97;;;35.77;;
13683;SDS011;6914;53.552;9.908;2022-09-09T00:40:00;75.00;;;36.70;;
13683;SDS011;6914;53.552;9.908;2022-09-09T00:42:36;65.00;;;35.20;;
13683;SDS011;6914;53.552;9.908;2022-09-09T00:45:12;69.97;;;36.60;;
13683;SDS011;6914;53.552;9.908;2022-09-09T00:48:01;67.00;;;36.67;;
13683;SDS011;6914;53.552;9.908;2022-09-09T00:50:35;77.10;;;36.90;;
13683;SDS011;6914;53.552;9.908;2022-09-09T00:53:12;78.23;;;38.13;;
13683;SDS011;6914;53.552;9.908;2022-09-09T00:55:51;86.63;;;38.73;;
13683;SDS011;6914;53.552;9.908;2022-09-09T00:58:27;70.50;;;37.40;;
13683;SDS011;6914;53.552;9.908;2022-09-09T01:00:55;70.93;;;37.53;;
13683;SDS011;6914;53.552;9.908;2022-09-09T01:03:33;82.97;;;40.43;;
13683;SDS011;6914;53.552;9.908;2022-09-09T01:06:10;89.33;;;40.80;;
13683;SDS011;6914;53.552;9.908;2022-09-09T01:11:42;90.37;;;40.70;;
13683;SDS011;6914;53.552;9.908;2022-09-09T01:14:19;74.90;;;36.97;;
13683;SDS011;6914;53.552;9.908;2022-09-09T01:16:58;88.53;;;41.00;;
13683;SDS011;6914;53.552;9.908;2022-09-09T01:19:37;97.73;;;41.00;;
13683;SDS011;6914;53.552;9.908;2022-09-09T01:22:13;92.83;;;39.07;;
13683;SDS011;6914;53.552;9.908;2022-09-09T01:25:01;99.03;;;40.70;;
13683;SDS011;6914;53.552;9.908;2022-09-09T01:28:27;95.27;;;38.43;;
13683;SDS011;6914;53.552;9.908;2022-09-09T01:30:55;94.40;;;40.30;;
13683;SDS011;6914;53.552;9.908;2022-09-09T01:33:23;87.67;;;40.17;;
13683;SDS011;6914;53.552;9.908;2022-09-09T01:35:52;97.50;;;38.90;;
13683;SDS011;6914;53.552;9.908;2022-09-09T01:38:25;96.93;;;40.33;;
13683;SDS011;6914;53.552;9.908;2022-09-09T01:40:54;95.37;;;43.30;;
13683;SDS011;6914;53.552;9.908;2022-09-09T01:43:23;88.03;;;40.40;;
13683;SDS011;6914;53.552;9.908;2022-09-09T01:45:53;99.70;;;39.30;;
13683;SDS011;6914;53.552;9.908;2022-09-09T01:48:22;83.67;;;36.50;;
13683;SDS011;6914;53.552;9.908;2022-09-09T01:50:51;104.80;;;38.00;;
13683;SDS011;6914;53.552;9.908;2022-09-09T01:53:19;100.47;;;39.00;;
13683;SDS011;6914;53.552;9.908;2022-09-09T01:55:50;91.90;;;38.13;;
13683;SDS011;6914;53.552;9.908;2022-09-09T01:58:32;154.17;;;42.43;;
13683;SDS011;6914;53.552;9.908;2022-09-09T02:01:09;110.73;;;38.37;;
13683;SDS011;6914;53.552;9.908;2022-09-09T02:03:44;562.20;;;45.10;;
13683;SDS011;6914;53.552;9.908;2022-09-09T02:06:18;558.07;;;47.10;;
13683;SDS011;6914;53.552;9.908;2022-09-09T02:08:53;479.77;;;44.90;;
13683;SDS011;6914;53.552;9.908;2022-09-09T02:11:24;272.97;;;43.87;;
13683;SDS011;6914;53.552;9.908;2022-09-09T02:13:54;242.67;;;43.07;;
13683;SDS011;6914;53.552;9.908;2022-09-09T02:16:26;131.40;;;40.90;;
13683;SDS011;6914;53.552;9.908;2022-09-09T02:19:00;116.30;;;41.10;;
13683;SDS011;6914;53.552;9.908;2022-09-09T02:21:32;99.53;;;40.67;;
13683;SDS011;6914;53.552;9.908;2022-09-09T02:24:00;83.53;;;35.60;;
13683;SDS011;6914;53.552;9.908;2022-09-09T02:26:34;89.60;;;37.80;;
13683;SDS011;6914;53.552;9.908;2022-09-09T02:29:06;93.57;;;37.27;;
13683;SDS011;6914;53.552;9.908;2022-09-09T02:31:35;87.23;;;36.63;;
13683;SDS011;6914;53.552;9.908;2022-09-09T02:34:04;102.43;;;37.27;;
13683;SDS011;6914;53.552;9.908;2022-09-09T02:36:35;97.40;;;38.40;;
13683;SDS011;6914;53.552;9.908;2022-09-09T02:39:04;122.20;;;39.10;;
13683;SDS011;6914;53.552;9.908;2022-09-09T02:41:36;116.43;;;38.53;;
13683;SDS011;6914;53.552;9.908;2022-09-09T02:44:08;90.10;;;35.77;;
13683;SDS011;6914;53.552;9.908;2022-09-09T02:46:44;101.90;;;37.77;;
13683;SDS011;6914;53.552;9.908;2022-09-09T02:49:31;90.33;;;36.20;;
13683;SDS011;6914;53.552;9.908;2022-09-09T02:52:07;88.70;;;35.73;;
13683;SDS011;6914;53.552;9.908;2022-09-09T02:54:41;98.17;;;38.50;;
13683;SDS011;6914;53.552;9.908;2022-09-09T02:57:12;95.37;;;38.20;;
13683;SDS011;6914;53.552;9.908;2022-09-09T02:59:44;91.70;;;39.43;;
13683;SDS011;6914;53.552;9.908;2022-09-09T03:02:12;84.17;;;35.53;;
13683;SDS011;6914;53.552;9.908;2022-09-09T03:04:40;86.93;;;37.07;;
13683;SDS011;6914;53.552;9.908;2022-09-09T03:07:09;94.80;;;37.93;;
13683;SDS011;6914;53.552;9.908;2022-09-09T03:09:37;85.87;;;36.77;;
13683;SDS011;6914;53.552;9.908;2022-09-09T03:12:04;82.67;;;36.60;;
13683;SDS011;6914;53.552;9.908;2022-09-09T03:14:33;76.07;;;33.97;;
13683;SDS011;6914;53.552;9.908;2022-09-09T03:17:00;83.97;;;35.23;;
13683;SDS011;6914;53.552;9.908;2022-09-09T03:19:28;90.83;;;35.40;;
13683;SDS011;6914;53.552;9.908;2022-09-09T03:21:55;81.37;;;33.97;;
13683;SDS011;6914;53.552;9.908;2022-09-09T03:24:22;75.97;;;31.70;;
13683;SDS011;6914;53.552;9.908;2022-09-09T03:26:50;61.80;;;31.80;;
13683;SDS011;6914;53.552;9.908;2022-09-09T03:29:17;64.57;;;31.03;;
13683;SDS011;6914;53.552;9.908;2022-09-09T03:31:46;64.73;;;32.03;;
13683;SDS011;6914;53.552;9.908;2022-09-09T03:34:13;65.53;;;32.10;;
13683;SDS011;6914;53.552;9.908;2022-09-09T03:36:40;68.00;;;33.90;;
13683;SDS011;6914;53.552;9.908;2022-09-09T03:39:07;70.27;;;31.03;;
13683;SDS011;6914;53.552;9.908;2022-09-09T03:41:34;76.53;;;32.10;;
13683;SDS011;6914;53.552;9.908;2022-09-09T03:44:02;72.67;;;32.83;;
13683;SDS011;6914;53.552;9.908;2022-09-09T03:46:29;70.70;;;32.07;;
13683;SDS011;6914;53.552;9.908;2022-09-09T03:48:58;63.97;;;31.20;;
13683;SDS011;6914;53.552;9.908;2022-09-09T03:51:26;59.43;;;31.30;;
13683;SDS011;6914;53.552;9.908;2022-09-09T03:53:53;75.73;;;31.10;;
13683;SDS011;6914;53.552;9.908;2022-09-09T03:56:21;72.80;;;31.63;;
13683;SDS011;6914;53.552;9.908;2022-09-09T03:58:48;75.90;;;33.83;;
13683;SDS011;6914;53.552;9.908;2022-09-09T04:01:16;64.10;;;31.00;;
13683;SDS011;6914;53.552;9.908;2022-09-09T04:03:43;62.40;;;29.10;;
13683;SDS011;6914;53.552;9.908;2022-09-09T04:06:12;69.80;;;30.93;;
13683;SDS011;6914;53.552;9.908;2022-09-09T04:08:40;60.97;;;30.40;;
13683;SDS011;6914;53.552;9.908;2022-09-09T04:11:07;67.77;;;32.30;;
13683;SDS011;6914;53.552;9.908;2022-09-09T04:13:35;61.40;;;31.80;;
13683;SDS011;6914;53.552;9.908;2022-09-09T04:16:04;65.87;;;31.53;;
13683;SDS011;6914;53.552;9.908;2022-09-09T04:18:32;70.13;;;32.90;;
13683;SDS011;6914;53.552;9.908;2022-09-09T04:20:59;74.60;;;33.03;;
13683;SDS011;6914;53.552;9.908;2022-09-09T04:23:27;85.40;;;35.93;;
13683;SDS011;6914;53.552;9.908;2022-09-09T04:25:56;62.30;;;32.50;;
13683;SDS011;6914;53.552;9.908;2022-09-09T04:28:24;64.87;;;33.23;;
13683;SDS011;6914;53.552;9.908;2022-09-09T04:30:53;63.43;;;30.80;;
13683;SDS011;6914;53.552;9.908;2022-09-09T04:33:23;72.67;;;33.17;;
13683;SDS011;6914;53.552;9.908;2022-09-09T04:35:52;76.33;;;34.07;;
13683;SDS011;6914;53.552;9.908;2022-09-09T04:38:21;69.20;;;31.83;;
13683;SDS011;6914;53.552;9.908;2022-09-09T04:40:50;68.70;;;32.03;;
13683;SDS011;6914;53.552;9.908;2022-09-09T04:43:19;73.93;;;32.10;;
13683;SDS011;6914;53.552;9.908;2022-09-09T04:45:46;67.60;;;32.40;;
13683;SDS011;6914;53.552;9.908;2022-09-09T04:48:14;62.87;;;32.10;;
13683;SDS011;6914;53.552;9.908;2022-09-09T04:50:42;58.43;;;30.43;;
13683;SDS011;6914;53.552;9.908;2022-09-09T04:53:09;52.00;;;29.57;;
13683;SDS011;6914;53.552;9.908;2022-09-09T04:55:36;57.40;;;30.13;;
13683;SDS011;6914;53.552;9.908;2022-09-09T04:58:05;55.07;;;27.87;;
13683;SDS011;6914;53.552;9.908;2022-09-09T05:00:33;50.23;;;26.07;;
13683;SDS011;6914;53.552;9.908;2022-09-09T05:03:02;47.57;;;26.40;;
13683;SDS011;6914;53.552;9.908;2022-09-09T05:05:30;56.10;;;26.33;;
13683;SDS011;6914;53.552;9.908;2022-09-09T05:08:00;46.37;;;26.90;;
13683;SDS011;6914;53.552;9.908;2022-09-09T05:10:28;47.97;;;27.30;;
13683;SDS011;6914;53.552;9.908;2022-09-09T05:12:55;55.90;;;26.33;;
13683;SDS011;6914;53.552;9.908;2022-09-09T05:15:24;41.17;;;24.30;;
13683;SDS011;6914;53.552;9.908;2022-09-09T05:17:51;44.77;;;25.30;;
13683;SDS011;6914;53.552;9.908;2022-09-09T05:20:18;48.97;;;25.07;;
13683;SDS011;6914;53.552;9.908;2022-09-09T05:22:46;46.10;;;25.57;;
13683;SDS011;6914;53.552;9.908;2022-09-09T05:25:14;38.17;;;23.60;;
13683;SDS011;6914;53.552;9.908;2022-09-09T05:27:41;39.30;;;23.20;;
13683;SDS011;6914;53.552;9.908;2022-09-09T05:30:09;32.13;;;21.50;;
13683;SDS011;6914;53.552;9.908;2022-09-09T05:32:38;32.87;;;21.60;;
13683;SDS011;6914;53.552;9.908;2022-09-09T05:35:05;31.37;;;22.03;;
13683;SDS011;6914;53.552;9.908;2022-09-09T05:37:35;33.37;;;20.77;;
13683;SDS011;6914;53.552;9.908;2022-09-09T05:40:05;30.57;;;19.37;;
13683;SDS011;6914;53.552;9.908;2022-09-09T05:42:33;31.23;;;20.47;;
13683;SDS011;6914;53.552;9.908;2022-09-09T05:45:00;29.67;;;19.13;;
13683;SDS011;6914;53.552;9.908;2022-09-09T05:47:27;32.87;;;18.90;;
13683;SDS011;6914;53.552;9.908;2022-09-09T05:49:55;36.70;;;19.60;;
13683;SDS011;6914;53.552;9.908;2022-09-09T05:52:22;31.80;;;19.57;;
13683;SDS011;6914;53.552;9.908;2022-09-09T05:54:51;22.00;;;17.17;;
13683;SDS011;6914;53.552;9.908;2022-09-09T05:57:20;30.97;;;18.20;;
13683;SDS011;6914;53.552;9.908;2022-09-09T05:59:47;27.20;;;18.00;;
13683;SDS011;6914;53.552;9.908;2022-09-09T06:02:14;24.33;;;17.27;;
13683;SDS011;6914;53.552;9.908;2022-09-09T06:04:41;19.40;;;15.70;;
13683;SDS011;6914;53.552;9.908;2022-09-09T06:07:10;32.40;;;14.53;;
13683;SDS011;6914;53.552;9.908;2022-09-09T06:09:39;27.17;;;13.00;;
13683;SDS011;6914;53.552;9.908;2022-09-09T06:12:06;24.50;;;14.10;;
13683;SDS011;6914;53.552;9.908;2022-09-09T06:14:34;25.03;;;12.53;;
13683;SDS011;6914;53.552;9.908;2022-09-09T06:17:01;17.40;;;12.60;;
13683;SDS011;6914;53.552;9.908;2022-09-09T06:19:29;18.17;;;11.60;;
13683;SDS011;6914;53.552;9.908;2022-09-09T06:21:56;30.30;;;12.47;;
13683;SDS011;6914;53.552;9.908;2022-09-09T06:24:25;16.60;;;10.13;;
13683;SDS011;6914;53.552;9.908;2022-09-09T06:26:52;15.23;;;10.50;;
13683;SDS011;6914;53.552;9.908;2022-09-09T06:29:19;12.27;;;9.80;;
13683;SDS011;6914;53.552;9.908;2022-09-09T06:31:46;17.43;;;10.13;;
13683;SDS011;6914;53.552;9.908;2022-09-09T06:34:13;18.47;;;10.37;;
13683;SDS011;6914;53.552;9.908;2022-09-09T06:36:40;12.27;;;9.10;;
13683;SDS011;6914;53.552;9.908;2022-09-09T06:39:07;13.83;;;8.67;;
13683;SDS011;6914;53.552;9.908;2022-09-09T06:41:37;10.20;;;9.20;;
13683;SDS011;6914;53.552;9.908;2022-09-09T06:44:04;13.43;;;8.20;;
13683;SDS011;6914;53.552;9.908;2022-09-09T06:46:32;9.47;;;8.50;;
13683;SDS011;6914;53.552;9.908;2022-09-09T06:49:00;13.33;;;8.90;;
13683;SDS011;6914;53.552;9.908;2022-09-09T06:51:28;9.67;;;8.30;;
13683;SDS011;6914;53.552;9.908;2022-09-09T06:53:56;9.33;;;8.50;;
13683;SDS011;6914;53.552;9.908;2022-09-09T06:56:27;12.27;;;7.83;;
13683;SDS011;6914;53.552;9.908;2022-09-09T06:58:57;13.30;;;9.00;;
13683;SDS011;6914;53.552;9.908;2022-09-09T07:01:27;8.33;;;7.17;;
13683;SDS011;6914;53.552;9.908;2022-09-09T07:03:55;9.60;;;8.10;;
13683;SDS011;6914;53.552;9.908;2022-09-09T07:06:24;11.13;;;7.97;;
13683;SDS011;6914;53.552;9.908;2022-09-09T07:08:53;8.83;;;8.03;;
13683;SDS011;6914;53.552;9.908;2022-09-09T07:11:21;9.60;;;8.10;;
13683;SDS011;6914;53.552;9.908;2022-09-09T07:13:51;10.40;;;7.77;;
13683;SDS011;6914;53.552;9.908;2022-09-09T07:16:20;10.70;;;7.00;;
13683;SDS011;6914;53.552;9.908;2022-09-09T07:18:49;6.23;;;5.60;;
13683;SDS011;6914;53.552;9.908;2022-09-09T07:21:17;8.47;;;6.80;;
13683;SDS011;6914;53.552;9.908;2022-09-09T07:23:45;5.57;;;5.07;;
13683;SDS011;6914;53.552;9.908;2022-09-09T07:26:14;8.40;;;6.07;;
13683;SDS011;6914;53.552;9.908;2022-09-09T07:28:44;8.27;;;5.80;;
13683;SDS011;6914;53.552;9.908;2022-09-09T07:31:13;7.80;;;5.80;;
13683;SDS011;6914;53.552;9.908;2022-09-09T07:33:43;5.90;;;5.00;;
13683;SDS011;6914;53.552;9.908;2022-09-09T07:36:12;6.77;;;5.97;;
13683;SDS011;6914;53.552;9.908;2022-09-09T07:38:43;6.20;;;5.70;;
13683;SDS011;6914;53.552;9.908;2022-09-09T07:41:12;6.30;;;5.63;;
13683;SDS011;6914;53.552;9.908;2022-09-09T07:43:41;9.63;;;4.60;;
13683;SDS011;6914;53.552;9.908;2022-09-09T07:46:10;14.73;;;6.47;;
13683;SDS011;6914;53.552;9.908;2022-09-09T07:48:47;21.20;;;5.90;;
13683;SDS011;6914;53.552;9.908;2022-09-09T07:51:17;9.03;;;5.40;;
13683;SDS011;6914;53.552;9.908;2022-09-09T07:53:47;6.00;;;5.10;;
13683;SDS011;6914;53.552;9.908;2022-09-09T07:56:17;10.70;;;5.43;;
13683;SDS011;6914;53.552;9.908;2022-09-09T07:58:47;8.30;;;6.20;;
13683;SDS011;6914;53.552;9.908;2022-09-09T08:01:16;5.67;;;5.17;;
13683;SDS011;6914;53.552;9.908;2022-09-09T08:03:51;7.53;;;6.13;;
13683;SDS011;6914;53.552;9.908;2022-09-09T08:06:20;6.73;;;5.50;;
13683;SDS011;6914;53.552;9.908;2022-09-09T08:08:50;5.43;;;4.93;;
13683;SDS011;6914;53.552;9.908;2022-09-09T08:11:18;6.00;;;5.10;;
13683;SDS011;6914;53.552;9.908;2022-09-09T08:13:46;4.83;;;4.53;;
13683;SDS011;6914;53.552;9.908;2022-09-09T08:16:14;7.93;;;4.80;;
13683;SDS011;6914;53.552;9.908;2022-09-09T08:18:48;6.93;;;4.87;;
13683;SDS011;6914;53.552;9.908;2022-09-09T08:21:17;5.00;;;4.23;;
13683;SDS011;6914;53.552;9.908;2022-09-09T08:23:46;5.03;;;4.63;;
13683;SDS011;6914;53.552;9.908;2022-09-09T08:26:14;7.23;;;4.77;;
13683;SDS011;6914;53.552;9.908;2022-09-09T08:28:46;7.17;;;5.00;;
13683;SDS011;6914;53.552;9.908;2022-09-09T08:31:14;4.67;;;4.20;;
13683;SDS011;6914;53.552;9.908;2022-09-09T08:33:43;5.40;;;3.30;;
13683;SDS011;6914;53.552;9.908;2022-09-09T08:36:13;6.17;;;4.10;;
13683;SDS011;6914;53.552;9.908;2022-09-09T08:38:41;3.80;;;3.53;;
13683;SDS011;6914;53.552;9.908;2022-09-09T08:41:17;8.67;;;3.40;;
13683;SDS011;6914;53.552;9.908;2022-09-09T08:44:09;3.80;;;3.53;;
13683;SDS011;6914;53.552;9.908;2022-09-09T08:46:44;3.40;;;3.20;;
13683;SDS011;6914;53.552;9.908;2022-09-09T08:49:20;5.10;;;3.47;;
13683;SDS011;6914;53.552;9.908;2022-09-09T08:52:08;3.67;;;3.20;;
13683;SDS011;6914;53.552;9.908;2022-09-09T08:54:41;5.37;;;3.40;;
13683;SDS011;6914;53.552;9.908;2022-09-09T08:57:09;7.33;;;3.73;;
13683;SDS011;6914;53.552;9.908;2022-09-09T08:59:40;2.97;;;2.77;;
13683;SDS011;6914;53.552;9.908;2022-09-09T09:02:09;3.80;;;2.93;;
13683;SDS011;6914;53.552;9.908;2022-09-09T09:04:46;5.43;;;2.80;;
13683;SDS011;6914;53.552;9.908;2022-09-09T09:07:28;5.53;;;2.50;;
13683;SDS011;6914;53.552;9.908;2022-09-09T09:10:10;9.83;;;2.03;;
13683;SDS011;6914;53.552;9.908;2022-09-09T09:12:46;2.43;;;2.23;;
13683;SDS011;6914;53.552;9.908;2022-09-09T09:15:16;5.20;;;2.60;;
13683;SDS011;6914;53.552;9.908;2022-09-09T09:17:46;1.90;;;1.70;;
13683;SDS011;6914;53.552;9.908;2022-09-09T09:20:14;2.80;;;1.70;;
13683;SDS011;6914;53.552;9.908;2022-09-09T09:22:46;8.53;;;3.13;;
13683;SDS011;6914;53.552;9.908;2022-09-09T09:25:16;1.83;;;1.70;;
13683;SDS011;6914;53.552;9.908;2022-09-09T09:27:46;2.83;;;2.20;;
13683;SDS011;6914;53.552;9.908;2022-09-09T09:30:21;5.20;;;1.80;;
13683;SDS011;6914;53.552;9.908;2022-09-09T09:32:52;4.03;;;1.80;;
13683;SDS011;6914;53.552;9.908;2022-09-09T09:35:22;4.80;;;2.07;;
13683;SDS011;6914;53.552;9.908;2022-09-09T09:37:51;4.10;;;1.40;;
13683;SDS011;6914;53.552;9.908;2022-09-09T09:40:20;2.23;;;1.20;;
13683;SDS011;6914;53.552;9.908;2022-09-09T09:42:48;1.70;;;1.60;;
13683;SDS011;6914;53.552;9.908;2022-09-09T09:45:20;2.03;;;1.93;;
13683;SDS011;6914;53.552;9.908;2022-09-09T09:48:00;2.33;;;2.13;;
13683;SDS011;6914;53.552;9.908;2022-09-09T09:50:29;4.20;;;1.57;;
13683;SDS011;6914;53.552;9.908;2022-09-09T09:52:59;2.70;;;2.33;;
13683;SDS011;6914;53.552;9.908;2022-09-09T09:55:29;1.00;;;1.00;;
13683;SDS011;6914;53.552;9.908;2022-09-09T09:58:03;1.67;;;1.50;;
13683;SDS011;6914;53.552;9.908;2022-09-09T10:00:32;2.47;;;1.40;;
13683;SDS011;6914;53.552;9.908;2022-09-09T10:03:01;5.40;;;1.20;;
13683;SDS011;6914;53.552;9.908;2022-09-09T10:05:28;1.67;;;1.00;;
13683;SDS011;6914;53.552;9.908;2022-09-09T10:08:02;6.40;;;1.13;;
13683;SDS011;6914;53.552;9.908;2022-09-09T10:10:35;1.37;;;1.10;;
13683;SDS011;6914;53.552;9.908;2022-09-09T10:13:15;1.90;;;1.53;;
13683;SDS011;6914;53.552;9.908;2022-09-09T10:15:52;1.77;;;1.20;;
13683;SDS011;6914;53.552;9.908;2022-09-09T10:18:36;3.17;;;1.00;;
13683;SDS011;6914;53.552;9.908;2022-09-09T10:21:15;1.37;;;1.10;;
13683;SDS011;6914;53.552;9.908;2022-09-09T10:23:58;1.13;;;0.90;;
13683;SDS011;6914;53.552;9.908;2022-09-09T10:26:50;4.33;;;1.40;;
13683;SDS011;6914;53.552;9.908;2022-09-09T10:29:32;1.93;;;0.83;;
13683;SDS011;6914;53.552;9.908;2022-09-09T10:32:17;1.80;;;0.80;;
13683;SDS011;6914;53.552;9.908;2022-09-09T10:35:13;4.77;;;1.40;;
13683;SDS011;6914;53.552;9.908;2022-09-09T10:40:45;1.53;;;1.10;;
13683;SDS011;6914;53.552;9.908;2022-09-09T10:43:32;1.27;;;0.90;;
13683;SDS011;6914;53.552;9.908;2022-09-09T10:46:12;1.97;;;0.80;;
13683;SDS011;6914;53.552;9.908;2022-09-09T10:48:52;1.57;;;1.30;;
13683;SDS011;6914;53.552;9.908;2022-09-09T10:51:32;2.20;;;1.27;;
13683;SDS011;6914;53.552;9.908;2022-09-09T10:54:14;4.70;;;1.33;;
13683;SDS011;6914;53.552;9.908;2022-09-09T10:56:54;1.13;;;0.90;;
13683;SDS011;6914;53.552;9.908;2022-09-09T10:59:26;2.40;;;1.03;;
13683;SDS011;6914;53.552;9.908;2022-09-09T11:01:58;1.93;;;0.93;;
13683;SDS011;6914;53.552;9.908;2022-09-09T11:04:32;2.00;;;0.80;;
13683;SDS011;6914;53.552;9.908;2022-09-09T11:07:05;2.17;;;1.10;;
13683;SDS011;6914;53.552;9.908;2022-09-09T11:09:36;2.20;;;1.00;;
13683;SDS011;6914;53.552;9.908;2022-09-09T11:12:10;3.60;;;1.10;;
13683;SDS011;6914;53.552;9.908;2022-09-09T11:14:45;1.23;;;1.13;;
13683;SDS011;6914;53.552;9.908;2022-09-09T11:17:16;5.30;;;1.47;;
13683;SDS011;6914;53.552;9.908;2022-09-09T11:19:46;3.03;;;1.30;;
13683;SDS011;6914;53.552;9.908;2022-09-09T11:22:15;4.10;;;1.33;;
13683;SDS011;6914;53.552;9.908;2022-09-09T11:24:51;1.60;;;1.17;;
13683;SDS011;6914;53.552;9.908;2022-09-09T11:27:24;1.90;;;1.33;;
13683;SDS011;6914;53.552;9.908;2022-09-09T11:30:18;5.53;;;1.73;;
13683;SDS011;6914;53.552;9.908;2022-09-09T11:32:56;3.23;;;1.63;;
13683;SDS011;6914;53.552;9.908;2022-09-09T11:35:46;1.90;;;1.20;;
13683;SDS011;6914;53.552;9.908;2022-09-09T11:38:25;1.30;;;1.00;;
13683;SDS011;6914;53.552;9.908;2022-09-09T11:40:54;4.83;;;1.30;;
13683;SDS011;6914;53.552;9.908;2022-09-09T11:43:27;7.23;;;1.97;;
13683;SDS011;6914;53.552;9.908;2022-09-09T11:45:58;3.13;;;1.13;;
13683;SDS011;6914;53.552;9.908;2022-09-09T11:48:29;2.43;;;1.40;;
13683;SDS011;6914;53.552;9.908;2022-09-09T11:51:01;5.00;;;1.80;;
13683;SDS011;6914;53.552;9.908;2022-09-09T11:53:30;9.13;;;1.73;;
13683;SDS011;6914;53.552;9.908;2022-09-09T11:56:02;3.10;;;1.80;;
13683;SDS011;6914;53.552;9.908;2022-09-09T11:58:36;1.73;;;1.63;;
13683;SDS011;6914;53.552;9.908;2022-09-09T12:01:26;10.43;;;1.30;;
13683;SDS011;6914;53.552;9.908;2022-09-09T12:06:43;6.40;;;2.23;;
13683;SDS011;6914;53.552;9.908;2022-09-09T12:09:17;3.90;;;1.50;;
13683;SDS011;6914;53.552;9.908;2022-09-09T12:11:51;3.00;;;1.17;;
13683;SDS011;6914;53.552;9.908;2022-09-09T12:14:21;4.40;;;1.80;;
13683;SDS011;6914;53.552;9.908;2022-09-09T12:17:08;5.50;;;1.57;;
13683;SDS011;6914;53.552;9.908;2022-09-09T12:19:36;5.57;;;1.90;;
13683;SDS011;6914;53.552;9.908;2022-09-09T12:22:04;3.60;;;1.70;;
13683;SDS011;6914;53.552;9.908;2022-09-09T12:24:40;2.90;;;2.10;;
13683;SDS011;6914;53.552;9.908;2022-09-09T12:27:12;7.37;;;1.90;;
13683;SDS011;6914;53.552;9.908;2022-09-09T12:29:48;2.13;;;1.93;;
13683;SDS011;6914;53.552;9.908;2022-09-09T12:32:22;4.63;;;2.03;;
13683;SDS011;6914;53.552;9.908;2022-09-09T12:34:52;5.80;;;2.00;;
13683;SDS011;6914;53.552;9.908;2022-09-09T12:37:24;4.40;;;2.03;;
13683;SDS011;6914;53.552;9.908;2022-09-09T12:39:58;2.57;;;1.80;;
13683;SDS011;6914;53.552;9.908;2022-09-09T12:42:27;7.63;;;2.30;;
13683;SDS011;6914;53.552;9.908;2022-09-09T12:44:59;2.83;;;1.60;;
13683;SDS011;6914;53.552;9.908;2022-09-09T12:47:35;5.90;;;1.87;;
13683;SDS011;6914;53.552;9.908;2022-09-09T12:50:10;3.63;;;2.70;;
13683;SDS011;6914;53.552;9.908;2022-09-09T12:52:42;4.93;;;2.40;;
13683;SDS011;6914;53.552;9.908;2022-09-09T12:55:15;1.90;;;1.80;;
13683;SDS011;6914;53.552;9.908;2022-09-09T12:57:45;5.07;;;2.40;;
13683;SDS011;6914;53.552;9.908;2022-09-09T13:00:17;3.50;;;2.23;;
13683;SDS011;6914;53.552;9.908;2022-09-09T13:02:49;2.90;;;1.80;;
13683;SDS011;6914;53.552;9.908;2022-09-09T13:05:18;2.90;;;2.43;;
13683;SDS011;6914;53.552;9.908;2022-09-09T13:07:48;3.57;;;2.40;;
13683;SDS011;6914;53.552;9.908;2022-09-09T13:10:19;5.63;;;2.67;;
13683;SDS011;6914;53.552;9.908;2022-09-09T13:12:51;5.30;;;4.00;;
13683;SDS011;6914;53.552;9.908;2022-09-09T13:15:22;4.33;;;3.23;;
13683;SDS011;6914;53.552;9.908;2022-09-09T13:17:55;5.93;;;2.77;;
13683;SDS011;6914;53.552;9.908;2022-09-09T13:20:25;4.53;;;1.93;;
13683;SDS011;6914;53.552;9.908;2022-09-09T13:22:54;4.90;;;1.60;;
13683;SDS011;6914;53.552;9.908;2022-09-09T13:25:24;4.43;;;2.33;;
13683;SDS011;6914;53.552;9.908;2022-09-09T13:27:54;4.87;;;1.50;;
13683;SDS011;6914;53.552;9.908;2022-09-09T13:30:29;7.07;;;1.93;;
13683;SDS011;6914;53.552;9.908;2022-09-09T13:33:06;2.90;;;1.80;;
13683;SDS011;6914;53.552;9.908;2022-09-09T13:35:49;5.97;;;2.40;;
13683;SDS011;6914;53.552;9.908;2022-09-09T13:38:19;6.60;;;2.40;;
13683;SDS011;6914;53.552;9.908;2022-09-09T13:40:56;3.80;;;2.00;;
13683;SDS011;6914;53.552;9.908;2022-09-09T13:43:27;5.37;;;2.47;;
13683;SDS011;6914;53.552;9.908;2022-09-09T13:45:58;8.63;;;2.67;;
13683;SDS011;6914;53.552;9.908;2022-09-09T13:48:27;4.80;;;2.47;;
13683;SDS011;6914;53.552;9.908;2022-09-09T13:50:59;10.70;;;4.10;;
13683;SDS011;6914;53.552;9.908;2022-09-09T13:53:28;4.47;;;3.47;;
13683;SDS011;6914;53.552;9.908;2022-09-09T13:55:55;6.60;;;4.60;;
13683;SDS011;6914;53.552;9.908;2022-09-09T13:58:23;4.10;;;3.70;;
13683;SDS011;6914;53.552;9.908;2022-09-09T14:00:51;5.73;;;4.07;;
13683;SDS011;6914;53.552;9.908;2022-09-09T14:03:23;10.40;;;4.57;;
13683;SDS011;6914;53.552;9.908;2022-09-09T14:05:51;6.20;;;3.87;;
13683;SDS011;6914;53.552;9.908;2022-09-09T14:08:23;5.70;;;4.70;;
13683;SDS011;6914;53.552;9.908;2022-09-09T14:11:02;4.23;;;3.77;;
13683;SDS011;6914;53.552;9.908;2022-09-09T14:13:39;3.60;;;3.40;;
13683;SDS011;6914;53.552;9.908;2022-09-09T14:16:06;6.03;;;4.60;;
13683;SDS011;6914;53.552;9.908;2022-09-09T14:18:36;5.33;;;4.67;;
13683;SDS011;6914;53.552;9.908;2022-09-09T14:21:04;6.03;;;5.07;;
13683;SDS011;6914;53.552;9.908;2022-09-09T14:23:34;7.23;;;5.77;;
13683;SDS011;6914;53.552;9.908;2022-09-09T14:26:01;9.53;;;6.07;;
13683;SDS011;6914;53.552;9.908;2022-09-09T14:28:36;9.10;;;6.47;;
13683;SDS011;6914;53.552;9.908;2022-09-09T14:31:05;7.03;;;6.53;;
13683;SDS011;6914;53.552;9.908;2022-09-09T14:33:36;7.00;;;6.47;;
13683;SDS011;6914;53.552;9.908;2022-09-09T14:36:08;6.53;;;5.93;;
13683;SDS011;6914;53.552;9.908;2022-09-09T14:38:38;4.73;;;4.33;;
13683;SDS011;6914;53.552;9.908;2022-09-09T14:41:06;3.40;;;3.20;;
13683;SDS011;6914;53.552;9.908;2022-09-09T14:43:35;2.83;;;2.60;;
13683;SDS011;6914;53.552;9.908;2022-09-09T14:46:06;3.13;;;2.93;;
13683;SDS011;6914;53.552;9.908;2022-09-09T14:48:37;5.17;;;3.27;;
13683;SDS011;6914;53.552;9.908;2022-09-09T14:51:06;3.63;;;3.33;;
13683;SDS011;6914;53.552;9.908;2022-09-09T14:53:35;4.93;;;3.60;;
13683;SDS011;6914;53.552;9.908;2022-09-09T14:56:04;5.10;;;4.13;;
13683;SDS011;6914;53.552;9.908;2022-09-09T14:58:33;7.27;;;3.20;;
13683;SDS011;6914;53.552;9.908;2022-09-09T15:01:02;4.50;;;4.10;;
13683;SDS011;6914;53.552;9.908;2022-09-09T15:03:31;6.20;;;3.57;;
13683;SDS011;6914;53.552;9.908;2022-09-09T15:06:04;7.27;;;4.50;;
13683;SDS011;6914;53.552;9.908;2022-09-09T15:08:31;4.20;;;3.73;;
13683;SDS011;6914;53.552;9.908;2022-09-09T15:11:00;3.37;;;3.07;;
13683;SDS011;6914;53.552;9.908;2022-09-09T15:13:27;4.70;;;3.00;;
13683;SDS011;6914;53.552;9.908;2022-09-09T15:15:54;4.23;;;3.67;;
13683;SDS011;6914;53.552;9.908;2022-09-09T15:18:22;3.03;;;2.93;;
13683;SDS011;6914;53.552;9.908;2022-09-09T15:20:50;7.50;;;3.70;;
13683;SDS011;6914;53.552;9.908;2022-09-09T15:23:19;3.77;;;3.43;;